sensor_id;sensor_type;location;lat;lon;timestamp;pressure;altitude;pressure_sealevel;temperature;humidity
81913;BME280;71377;50.698;7.164;2023-07-31T00:00:58;100699.97;;;19.02;77.40
81913;BME280;71377;50.698;7.164;2023-07-31T00:03:24;100697.00;;;19.06;77.19
81913;BME280;71377;50.698;7.164;2023-07-31T00:05:51;100693.56;;;19.17;76.30
81913;BME280;71377;50.698;7.164;2023-07-31T00:08:17;100686.78;;;19.13;76.96
81913;BME280;71377;50.698;7.164;2023-07-31T00:10:44;100687.72;;;19.25;76.51
81913;BME280;71377;50.698;7.164;2023-07-31T00:13:10;100690.91;;;19.17;76.66
81913;BME280;71377;50.698;7.164;2023-07-31T00:15:38;100686.00;;;19.11;76.91
81913;BME280;71377;50.698;7.164;2023-07-31T00:18:05;100681.22;;;19.16;76.83
81913;BME280;71377;50.698;7.164;2023-07-31T00:20:31;100687.94;;;19.09;77.34
81913;BME280;71377;50.698;7.164;2023-07-31T00:22:57;100690.19;;;19.15;77.52
81913;BME280;71377;50.698;7.164;2023-07-31T00:25:24;100687.41;;;19.16;76.74
81913;BME280;71377;50.698;7.164;2023-07-31T00:27:50;100689.88;;;19.07;77.83
81913;BME280;71377;50.698;7.164;2023-07-31T00:30:17;100699.13;;;19.01;78.17
81913;BME280;71377;50.698;7.164;2023-07-31T00:32:43;100696.38;;;19.03;77.53
81913;BME280;71377;50.698;7.164;2023-07-31T00:35:10;100702.00;;;19.11;77.69
81913;BME280;71377;50.698;7.164;2023-07-31T00:37:36;100693.91;;;19.25;77.10
81913;BME280;71377;50.698;7.164;2023-07-31T00:40:03;100694.97;;;19.10;77.79
81913;BME280;71377;50.698;7.164;2023-07-31T00:42:30;100693.56;;;19.17;77.82
81913;BME280;71377;50.698;7.164;2023-07-31T00:44:56;100682.94;;;19.17;77.92
81913;BME280;71377;50.698;7.164;2023-07-31T00:47:22;100693.38;;;19.20;77.46
81913;BME280;71377;50.698;7.164;2023-07-31T00:49:49;100698.50;;;18.98;78.91
81913;BME280;71377;50.698;7.164;2023-07-31T00:52:16;100702.75;;;19.00;78.75
81913;BME280;71377;50.698;7.164;2023-07-31T00:54:43;100697.63;;;19.10;78.33
81913;BME280;71377;50.698;7.164;2023-07-31T00:57:09;100693.38;;;19.07;78.67
81913;BME280;71377;50.698;7.164;2023-07-31T00:59:36;100697.44;;;19.13;78.32
81913;BME280;71377;50.698;7.164;2023-07-31T01:02:03;100693.16;;;19.10;78.69
81913;BME280;71377;50.698;7.164;2023-07-31T01:04:30;100694.00;;;19.11;78.67
81913;BME280;71377;50.698;7.164;2023-07-31T01:09:49;100681.56;;;18.99;79.55
81913;BME280;71377;50.698;7.164;2023-07-31T01:12:20;100678.66;;;19.02;79.49
81913;BME280;71377;50.698;7.164;2023-07-31T01:15:09;100679.75;;;18.99;79.60
81913;BME280;71377;50.698;7.164;2023-07-31T01:17:38;100671.66;;;18.88;80.27
81913;BME280;71377;50.698;7.164;2023-07-31T01:20:12;100670.38;;;18.93;79.88
81913;BME280;71377;50.698;7.164;2023-07-31T01:29:03;100666.47;;;18.86;80.53
81913;BME280;71377;50.698;7.164;2023-07-31T01:31:34;100664.84;;;18.84;80.68
81913;BME280;71377;50.698;7.164;2023-07-31T01:34:02;100667.69;;;18.93;80.51
81913;BME280;71377;50.698;7.164;2023-07-31T01:36:30;100674.66;;;18.96;80.60
81913;BME280;71377;50.698;7.164;2023-07-31T01:39:01;100670.16;;;18.97;81.04
81913;BME280;71377;50.698;7.164;2023-07-31T01:41:27;100672.72;;;18.73;82.27
81913;BME280;71377;50.698;7.164;2023-07-31T01:43:54;100671.75;;;18.74;82.26
81913;BME280;71377;50.698;7.164;2023-07-31T01:46:20;100658.13;;;18.91;81.57
81913;BME280;71377;50.698;7.164;2023-07-31T01:48:47;100658.00;;;18.67;82.37
81913;BME280;71377;50.698;7.164;2023-07-31T01:51:13;100666.66;;;18.71;82.55
81913;BME280;71377;50.698;7.164;2023-07-31T01:53:40;100660.13;;;18.62;82.58
81913;BME280;71377;50.698;7.164;2023-07-31T01:56:06;100662.47;;;18.54;82.83
81913;BME280;71377;50.698;7.164;2023-07-31T01:58:33;100662.56;;;18.52;82.79
81913;BME280;71377;50.698;7.164;2023-07-31T02:00:59;100658.50;;;18.47;83.19
81913;BME280;71377;50.698;7.164;2023-07-31T02:03:25;100649.91;;;18.43;83.12
81913;BME280;71377;50.698;7.164;2023-07-31T02:05:53;100652.44;;;18.57;82.55
81913;BME280;71377;50.698;7.164;2023-07-31T02:08:20;100652.03;;;18.51;82.70
81913;BME280;71377;50.698;7.164;2023-07-31T02:10:46;100650.97;;;18.53;82.42
81913;BME280;71377;50.698;7.164;2023-07-31T02:13:13;100653.63;;;18.53;82.12
81913;BME280;71377;50.698;7.164;2023-07-31T02:15:39;100648.09;;;18.56;81.87
81913;BME280;71377;50.698;7.164;2023-07-31T02:18:06;100649.16;;;18.54;82.16
81913;BME280;71377;50.698;7.164;2023-07-31T02:20:35;100645.66;;;18.66;81.86
81913;BME280;71377;50.698;7.164;2023-07-31T02:23:02;100640.44;;;18.52;82.36
81913;BME280;71377;50.698;7.164;2023-07-31T02:25:28;100638.50;;;18.54;82.07
81913;BME280;71377;50.698;7.164;2023-07-31T02:27:55;100631.50;;;18.53;82.25
81913;BME280;71377;50.698;7.164;2023-07-31T02:30:21;100623.06;;;18.59;82.25
81913;BME280;71377;50.698;7.164;2023-07-31T02:32:48;100620.50;;;18.57;82.03
81913;BME280;71377;50.698;7.164;2023-07-31T02:35:15;100624.69;;;18.61;81.73
81913;BME280;71377;50.698;7.164;2023-07-31T02:37:42;100626.69;;;18.58;81.75
81913;BME280;71377;50.698;7.164;2023-07-31T02:40:09;100629.50;;;18.69;81.02
81913;BME280;71377;50.698;7.164;2023-07-31T02:42:36;100623.94;;;18.59;81.39
81913;BME280;71377;50.698;7.164;2023-07-31T02:45:02;100627.75;;;18.55;81.78
81913;BME280;71377;50.698;7.164;2023-07-31T02:47:29;100616.91;;;18.58;81.58
81913;BME280;71377;50.698;7.164;2023-07-31T02:49:55;100619.47;;;18.60;81.18
81913;BME280;71377;50.698;7.164;2023-07-31T02:52:22;100613.75;;;18.66;80.76
81913;BME280;71377;50.698;7.164;2023-07-31T02:54:48;100610.66;;;18.72;80.73
81913;BME280;71377;50.698;7.164;2023-07-31T02:57:15;100608.84;;;18.60;80.59
81913;BME280;71377;50.698;7.164;2023-07-31T02:59:45;100609.19;;;18.68;80.27
81913;BME280;71377;50.698;7.164;2023-07-31T03:02:11;100612.03;;;18.65;80.08
81913;BME280;71377;50.698;7.164;2023-07-31T03:04:39;100608.00;;;18.59;80.58
81913;BME280;71377;50.698;7.164;2023-07-31T03:07:06;100601.69;;;18.60;80.34
81913;BME280;71377;50.698;7.164;2023-07-31T03:09:32;100612.13;;;18.63;80.11
81913;BME280;71377;50.698;7.164;2023-07-31T03:11:59;100605.84;;;18.64;79.58
81913;BME280;71377;50.698;7.164;2023-07-31T03:14:25;100609.69;;;18.73;79.47
81913;BME280;71377;50.698;7.164;2023-07-31T03:16:53;100606.94;;;18.87;79.01
81913;BME280;71377;50.698;7.164;2023-07-31T03:19:19;100600.75;;;18.74;79.06
81913;BME280;71377;50.698;7.164;2023-07-31T03:21:46;100597.97;;;18.88;77.90
81913;BME280;71377;50.698;7.164;2023-07-31T03:24:12;100600.56;;;18.77;79.20
81913;BME280;71377;50.698;7.164;2023-07-31T03:26:39;100597.13;;;18.75;79.33
81913;BME280;71377;50.698;7.164;2023-07-31T03:29:08;100590.34;;;18.71;79.38
81913;BME280;71377;50.698;7.164;2023-07-31T03:31:34;100593.63;;;18.75;78.67
81913;BME280;71377;50.698;7.164;2023-07-31T03:34:01;100583.63;;;18.78;78.52
81913;BME280;71377;50.698;7.164;2023-07-31T03:36:27;100590.00;;;18.88;78.09
81913;BME280;71377;50.698;7.164;2023-07-31T03:38:54;100578.38;;;18.89;77.86
81913;BME280;71377;50.698;7.164;2023-07-31T03:41:20;100581.59;;;18.82;78.28
81913;BME280;71377;50.698;7.164;2023-07-31T03:43:50;100568.81;;;18.74;78.78
81913;BME280;71377;50.698;7.164;2023-07-31T03:46:23;100567.53;;;18.80;78.06
81913;BME280;71377;50.698;7.164;2023-07-31T03:48:50;100562.41;;;18.89;77.25
81913;BME280;71377;50.698;7.164;2023-07-31T03:51:17;100560.63;;;18.77;78.59
81913;BME280;71377;50.698;7.164;2023-07-31T03:53:44;100556.06;;;18.79;78.52
81913;BME280;71377;50.698;7.164;2023-07-31T03:56:10;100556.25;;;18.76;78.64
81913;BME280;71377;50.698;7.164;2023-07-31T03:58:37;100551.69;;;18.78;78.70
81913;BME280;71377;50.698;7.164;2023-07-31T04:01:03;100550.72;;;18.79;78.01
81913;BME280;71377;50.698;7.164;2023-07-31T04:03:30;100561.81;;;18.73;79.05
81913;BME280;71377;50.698;7.164;2023-07-31T04:05:56;100554.47;;;18.77;79.13
81913;BME280;71377;50.698;7.164;2023-07-31T04:08:23;100553.59;;;18.76;79.73
81913;BME280;71377;50.698;7.164;2023-07-31T04:10:50;100554.00;;;18.83;78.35
81913;BME280;71377;50.698;7.164;2023-07-31T04:13:16;100545.41;;;18.79;78.32
81913;BME280;71377;50.698;7.164;2023-07-31T04:15:48;100548.38;;;18.87;77.85
81913;BME280;71377;50.698;7.164;2023-07-31T04:18:15;100544.22;;;18.83;78.19
81913;BME280;71377;50.698;7.164;2023-07-31T04:20:41;100555.81;;;18.82;78.56
81913;BME280;71377;50.698;7.164;2023-07-31T04:23:07;100559.69;;;18.78;78.86
81913;BME280;71377;50.698;7.164;2023-07-31T04:25:34;100557.75;;;18.80;78.59
81913;BME280;71377;50.698;7.164;2023-07-31T04:28:01;100554.97;;;18.82;78.79
81913;BME280;71377;50.698;7.164;2023-07-31T04:30:27;100547.00;;;18.82;78.69
81913;BME280;71377;50.698;7.164;2023-07-31T04:32:54;100552.00;;;18.86;78.20
81913;BME280;71377;50.698;7.164;2023-07-31T04:35:20;100557.81;;;18.91;78.31
81913;BME280;71377;50.698;7.164;2023-07-31T04:37:49;100547.22;;;18.79;79.18
81913;BME280;71377;50.698;7.164;2023-07-31T04:40:16;100549.03;;;18.78;78.92
81913;BME280;71377;50.698;7.164;2023-07-31T04:42:42;100553.69;;;18.75;79.04
81913;BME280;71377;50.698;7.164;2023-07-31T04:45:09;100550.94;;;18.76;79.68
81913;BME280;71377;50.698;7.164;2023-07-31T04:47:36;100553.28;;;18.81;78.95
81913;BME280;71377;50.698;7.164;2023-07-31T04:50:02;100548.81;;;18.81;79.26
81913;BME280;71377;50.698;7.164;2023-07-31T04:52:28;100549.22;;;18.75;79.53
81913;BME280;71377;50.698;7.164;2023-07-31T04:54:55;100552.75;;;18.88;78.51
81913;BME280;71377;50.698;7.164;2023-07-31T04:57:21;100553.69;;;18.87;78.63
81913;BME280;71377;50.698;7.164;2023-07-31T04:59:48;100551.13;;;18.99;77.87
81913;BME280;71377;50.698;7.164;2023-07-31T05:02:16;100553.16;;;18.95;78.82
81913;BME280;71377;50.698;7.164;2023-07-31T05:04:43;100549.41;;;18.98;79.21
81913;BME280;71377;50.698;7.164;2023-07-31T05:07:09;100542.13;;;19.12;78.15
81913;BME280;71377;50.698;7.164;2023-07-31T05:09:36;100527.81;;;19.26;77.64
81913;BME280;71377;50.698;7.164;2023-07-31T05:12:04;100529.31;;;19.17;78.42
81913;BME280;71377;50.698;7.164;2023-07-31T05:14:31;100530.72;;;19.10;79.28
81913;BME280;71377;50.698;7.164;2023-07-31T05:16:57;100524.53;;;19.23;78.25
81913;BME280;71377;50.698;7.164;2023-07-31T05:19:24;100522.94;;;19.20;78.74
81913;BME280;71377;50.698;7.164;2023-07-31T05:21:50;100526.78;;;19.16;78.92
81913;BME280;71377;50.698;7.164;2023-07-31T05:24:17;100517.72;;;19.18;78.75
81913;BME280;71377;50.698;7.164;2023-07-31T05:26:43;100523.69;;;19.22;79.28
81913;BME280;71377;50.698;7.164;2023-07-31T05:29:10;100517.63;;;19.20;79.54
81913;BME280;71377;50.698;7.164;2023-07-31T05:31:36;100512.28;;;19.20;79.51
81913;BME280;71377;50.698;7.164;2023-07-31T05:34:04;100514.56;;;19.37;79.52
81913;BME280;71377;50.698;7.164;2023-07-31T05:36:30;100516.47;;;19.35;79.32
81913;BME280;71377;50.698;7.164;2023-07-31T05:38:57;100512.63;;;19.39;79.39
81913;BME280;71377;50.698;7.164;2023-07-31T05:41:23;100512.22;;;19.33;79.99
81913;BME280;71377;50.698;7.164;2023-07-31T05:43:50;100508.84;;;19.31;80.27
81913;BME280;71377;50.698;7.164;2023-07-31T05:46:17;100510.84;;;19.27;80.29
81913;BME280;71377;50.698;7.164;2023-07-31T05:48:44;100498.59;;;19.37;80.14
81913;BME280;71377;50.698;7.164;2023-07-31T05:51:10;100499.47;;;19.25;80.52
81913;BME280;71377;50.698;7.164;2023-07-31T05:53:37;100495.72;;;19.28;80.90
81913;BME280;71377;50.698;7.164;2023-07-31T05:56:06;100493.69;;;19.31;81.17
81913;BME280;71377;50.698;7.164;2023-07-31T05:58:33;100488.38;;;19.31;80.66
81913;BME280;71377;50.698;7.164;2023-07-31T06:00:59;100489.66;;;19.26;81.14
81913;BME280;71377;50.698;7.164;2023-07-31T06:03:25;100485.47;;;19.34;80.35
81913;BME280;71377;50.698;7.164;2023-07-31T06:05:52;100492.22;;;19.27;80.98
81913;BME280;71377;50.698;7.164;2023-07-31T06:08:18;100485.66;;;19.20;81.45
81913;BME280;71377;50.698;7.164;2023-07-31T06:10:45;100486.72;;;19.17;81.80
81913;BME280;71377;50.698;7.164;2023-07-31T06:13:11;100478.59;;;19.19;82.18
81913;BME280;71377;50.698;7.164;2023-07-31T06:15:38;100474.25;;;19.18;82.42
81913;BME280;71377;50.698;7.164;2023-07-31T06:18:05;100476.88;;;19.07;82.92
81913;BME280;71377;50.698;7.164;2023-07-31T06:20:34;100477.72;;;19.07;83.05
81913;BME280;71377;50.698;7.164;2023-07-31T06:23:01;100482.50;;;19.02;83.71
81913;BME280;71377;50.698;7.164;2023-07-31T06:25:27;100480.22;;;18.85;83.52
81913;BME280;71377;50.698;7.164;2023-07-31T06:27:54;100482.69;;;18.75;83.98
81913;BME280;71377;50.698;7.164;2023-07-31T06:30:20;100484.63;;;18.73;83.98
81913;BME280;71377;50.698;7.164;2023-07-31T06:32:48;100480.56;;;18.80;83.60
81913;BME280;71377;50.698;7.164;2023-07-31T06:35:15;100477.84;;;18.69;83.54
81913;BME280;71377;50.698;7.164;2023-07-31T06:37:41;100479.13;;;18.51;82.78
81913;BME280;71377;50.698;7.164;2023-07-31T06:40:10;100478.59;;;18.46;82.04
81913;BME280;71377;50.698;7.164;2023-07-31T06:42:37;100479.44;;;18.46;81.46
81913;BME280;71377;50.698;7.164;2023-07-31T06:45:04;100471.16;;;18.51;81.10
81913;BME280;71377;50.698;7.164;2023-07-31T06:47:31;100469.34;;;18.51;80.74
81913;BME280;71377;50.698;7.164;2023-07-31T06:49:58;100473.22;;;18.58;80.58
81913;BME280;71377;50.698;7.164;2023-07-31T06:52:24;100474.97;;;18.59;80.16
81913;BME280;71377;50.698;7.164;2023-07-31T06:55:01;100469.88;;;18.69;80.42
81913;BME280;71377;50.698;7.164;2023-07-31T06:57:30;100465.38;;;18.70;80.20
81913;BME280;71377;50.698;7.164;2023-07-31T06:59:56;100469.56;;;18.98;80.29
81913;BME280;71377;50.698;7.164;2023-07-31T07:02:22;100470.00;;;18.91;80.30
81913;BME280;71377;50.698;7.164;2023-07-31T07:04:49;100467.03;;;18.83;80.15
81913;BME280;71377;50.698;7.164;2023-07-31T07:07:17;100464.66;;;18.91;80.35
81913;BME280;71377;50.698;7.164;2023-07-31T07:09:45;100456.56;;;19.17;80.40
81913;BME280;71377;50.698;7.164;2023-07-31T07:12:11;100452.34;;;19.14;80.52
81913;BME280;71377;50.698;7.164;2023-07-31T07:14:38;100453.88;;;19.30;80.79
81913;BME280;71377;50.698;7.164;2023-07-31T07:17:05;100456.47;;;19.54;80.60
81913;BME280;71377;50.698;7.164;2023-07-31T07:19:31;100460.09;;;19.76;80.67
81913;BME280;71377;50.698;7.164;2023-07-31T07:21:58;100445.22;;;19.74;80.86
81913;BME280;71377;50.698;7.164;2023-07-31T07:24:28;100442.03;;;19.80;80.75
81913;BME280;71377;50.698;7.164;2023-07-31T07:26:55;100444.09;;;19.76;81.22
81913;BME280;71377;50.698;7.164;2023-07-31T07:29:21;100446.63;;;19.67;81.49
81913;BME280;71377;50.698;7.164;2023-07-31T07:31:48;100443.25;;;19.65;81.10
81913;BME280;71377;50.698;7.164;2023-07-31T07:34:15;100450.72;;;19.60;80.77
81913;BME280;71377;50.698;7.164;2023-07-31T07:36:41;100439.75;;;19.75;81.28
81913;BME280;71377;50.698;7.164;2023-07-31T07:39:10;100448.91;;;19.60;81.27
81913;BME280;71377;50.698;7.164;2023-07-31T07:41:37;100455.81;;;19.63;81.51
81913;BME280;71377;50.698;7.164;2023-07-31T07:44:04;100453.53;;;19.45;81.98
81913;BME280;71377;50.698;7.164;2023-07-31T07:46:31;100446.38;;;19.35;81.95
81913;BME280;71377;50.698;7.164;2023-07-31T07:48:57;100454.25;;;19.36;81.67
81913;BME280;71377;50.698;7.164;2023-07-31T07:51:26;100443.66;;;19.24;81.70
81913;BME280;71377;50.698;7.164;2023-07-31T07:53:52;100452.91;;;19.07;81.66
81913;BME280;71377;50.698;7.164;2023-07-31T07:56:19;100446.50;;;19.09;81.51
81913;BME280;71377;50.698;7.164;2023-07-31T07:58:48;100442.94;;;18.98;81.22
81913;BME280;71377;50.698;7.164;2023-07-31T08:01:16;100447.34;;;19.10;81.01
81913;BME280;71377;50.698;7.164;2023-07-31T08:03:43;100453.22;;;19.26;80.63
81913;BME280;71377;50.698;7.164;2023-07-31T08:06:10;100455.41;;;19.21;80.16
81913;BME280;71377;50.698;7.164;2023-07-31T08:08:37;100455.31;;;19.34;79.88
81913;BME280;71377;50.698;7.164;2023-07-31T08:11:04;100455.84;;;19.15;79.15
81913;BME280;71377;50.698;7.164;2023-07-31T08:13:30;100450.94;;;19.22;79.19
81913;BME280;71377;50.698;7.164;2023-07-31T08:15:57;100445.59;;;19.22;79.92
81913;BME280;71377;50.698;7.164;2023-07-31T08:18:23;100453.56;;;18.98;79.57
81913;BME280;71377;50.698;7.164;2023-07-31T08:20:51;100445.88;;;19.06;79.86
81913;BME280;71377;50.698;7.164;2023-07-31T08:23:17;100444.31;;;19.03;79.85
81913;BME280;71377;50.698;7.164;2023-07-31T08:25:45;100446.56;;;19.20;79.99
81913;BME280;71377;50.698;7.164;2023-07-31T08:28:11;100432.44;;;19.07;79.67
81913;BME280;71377;50.698;7.164;2023-07-31T08:30:37;100444.47;;;19.13;79.67
81913;BME280;71377;50.698;7.164;2023-07-31T08:33:04;100441.69;;;19.38;79.72
81913;BME280;71377;50.698;7.164;2023-07-31T08:35:31;100440.41;;;19.20;79.56
81913;BME280;71377;50.698;7.164;2023-07-31T08:37:58;100431.75;;;19.16;79.23
81913;BME280;71377;50.698;7.164;2023-07-31T08:40:24;100429.91;;;19.06;80.06
81913;BME280;71377;50.698;7.164;2023-07-31T08:42:54;100421.41;;;19.01;79.54
81913;BME280;71377;50.698;7.164;2023-07-31T08:45:22;100418.72;;;19.01;79.09
81913;BME280;71377;50.698;7.164;2023-07-31T08:47:51;100407.13;;;19.02;79.28
81913;BME280;71377;50.698;7.164;2023-07-31T08:50:20;100406.63;;;18.97;79.04
81913;BME280;71377;50.698;7.164;2023-07-31T08:52:49;100405.44;;;19.01;79.59
81913;BME280;71377;50.698;7.164;2023-07-31T08:55:16;100397.69;;;18.98;79.52
81913;BME280;71377;50.698;7.164;2023-07-31T08:57:42;100401.31;;;18.97;79.64
81913;BME280;71377;50.698;7.164;2023-07-31T09:00:10;100402.31;;;18.83;79.17
81913;BME280;71377;50.698;7.164;2023-07-31T09:02:43;100402.56;;;19.04;79.40
81913;BME280;71377;50.698;7.164;2023-07-31T09:05:12;100404.81;;;18.97;79.32
81913;BME280;71377;50.698;7.164;2023-07-31T09:07:39;100404.00;;;18.84;79.34
81913;BME280;71377;50.698;7.164;2023-07-31T09:10:06;100406.28;;;18.77;79.15
81913;BME280;71377;50.698;7.164;2023-07-31T09:12:33;100404.69;;;18.75;78.63
81913;BME280;71377;50.698;7.164;2023-07-31T09:15:01;100402.97;;;18.86;78.69
81913;BME280;71377;50.698;7.164;2023-07-31T09:17:33;100411.50;;;18.79;78.02
81913;BME280;71377;50.698;7.164;2023-07-31T09:20:20;100399.50;;;18.97;78.14
81913;BME280;71377;50.698;7.164;2023-07-31T09:22:48;100398.47;;;18.87;78.06
81913;BME280;71377;50.698;7.164;2023-07-31T09:25:22;100402.31;;;19.07;78.22
81913;BME280;71377;50.698;7.164;2023-07-31T09:28:04;100408.22;;;18.99;77.46
81913;BME280;71377;50.698;7.164;2023-07-31T09:30:32;100403.88;;;19.09;77.75
81913;BME280;71377;50.698;7.164;2023-07-31T09:33:09;100406.22;;;19.14;76.96
81913;BME280;71377;50.698;7.164;2023-07-31T09:35:35;100402.31;;;19.07;77.07
81913;BME280;71377;50.698;7.164;2023-07-31T09:38:07;100402.72;;;19.13;77.20
81913;BME280;71377;50.698;7.164;2023-07-31T09:40:36;100394.09;;;19.10;77.13
81913;BME280;71377;50.698;7.164;2023-07-31T09:43:05;100388.59;;;19.24;77.11
81913;BME280;71377;50.698;7.164;2023-07-31T09:45:36;100392.94;;;19.25;76.50
81913;BME280;71377;50.698;7.164;2023-07-31T09:48:12;100382.66;;;19.20;76.84
81913;BME280;71377;50.698;7.164;2023-07-31T09:50:41;100390.16;;;19.27;77.33
81913;BME280;71377;50.698;7.164;2023-07-31T09:53:09;100383.53;;;19.32;76.99
81913;BME280;71377;50.698;7.164;2023-07-31T09:55:37;100377.69;;;19.27;76.22
81913;BME280;71377;50.698;7.164;2023-07-31T09:58:06;100371.19;;;19.31;76.61
81913;BME280;71377;50.698;7.164;2023-07-31T10:00:34;100364.31;;;19.40;76.31
81913;BME280;71377;50.698;7.164;2023-07-31T10:03:07;100367.31;;;19.35;76.96
81913;BME280;71377;50.698;7.164;2023-07-31T10:05:36;100367.84;;;19.52;76.28
81913;BME280;71377;50.698;7.164;2023-07-31T10:08:06;100361.31;;;19.56;76.50
81913;BME280;71377;50.698;7.164;2023-07-31T10:10:35;100340.28;;;19.75;76.91
81913;BME280;71377;50.698;7.164;2023-07-31T10:13:03;100347.16;;;20.22;76.91
81913;BME280;71377;50.698;7.164;2023-07-31T10:15:31;100344.88;;;20.18;77.62
81913;BME280;71377;50.698;7.164;2023-07-31T10:17:59;100343.78;;;20.20;77.61
81913;BME280;71377;50.698;7.164;2023-07-31T10:20:26;100355.19;;;20.33;77.77
81913;BME280;71377;50.698;7.164;2023-07-31T10:22:54;100346.19;;;20.23;78.50
81913;BME280;71377;50.698;7.164;2023-07-31T10:25:24;100343.69;;;20.11;78.86
81913;BME280;71377;50.698;7.164;2023-07-31T10:27:53;100347.75;;;20.37;78.76
81913;BME280;71377;50.698;7.164;2023-07-31T10:30:26;100337.03;;;20.71;78.83
81913;BME280;71377;50.698;7.164;2023-07-31T10:32:55;100332.53;;;21.03;79.02
81913;BME280;71377;50.698;7.164;2023-07-31T10:35:22;100334.63;;;21.21;79.03
81913;BME280;71377;50.698;7.164;2023-07-31T10:37:49;100335.88;;;21.58;78.65
81913;BME280;71377;50.698;7.164;2023-07-31T10:40:20;100334.38;;;21.96;76.37
81913;BME280;71377;50.698;7.164;2023-07-31T10:42:52;100328.66;;;21.80;76.66
81913;BME280;71377;50.698;7.164;2023-07-31T10:45:37;100330.28;;;21.92;75.28
81913;BME280;71377;50.698;7.164;2023-07-31T10:48:22;100327.47;;;21.93;74.03
81913;BME280;71377;50.698;7.164;2023-07-31T10:50:51;100320.28;;;21.94;74.56
81913;BME280;71377;50.698;7.164;2023-07-31T10:53:29;100323.13;;;22.02;73.79
81913;BME280;71377;50.698;7.164;2023-07-31T10:56:04;100322.44;;;22.00;73.04
81913;BME280;71377;50.698;7.164;2023-07-31T10:58:31;100327.19;;;21.96;73.29
81913;BME280;71377;50.698;7.164;2023-07-31T11:01:01;100331.75;;;21.54;74.18
81913;BME280;71377;50.698;7.164;2023-07-31T11:03:45;100324.09;;;21.40;74.44
81913;BME280;71377;50.698;7.164;2023-07-31T11:06:13;100327.56;;;21.31;73.91
81913;BME280;71377;50.698;7.164;2023-07-31T11:08:50;100323.47;;;21.15;73.49
81913;BME280;71377;50.698;7.164;2023-07-31T11:11:19;100328.78;;;21.27;74.55
81913;BME280;71377;50.698;7.164;2023-07-31T11:16:17;100331.44;;;21.68;72.01
81913;BME280;71377;50.698;7.164;2023-07-31T11:18:45;100331.13;;;21.41;72.80
81913;BME280;71377;50.698;7.164;2023-07-31T11:21:14;100325.28;;;21.47;73.35
81913;BME280;71377;50.698;7.164;2023-07-31T11:23:46;100327.03;;;21.37;73.31
81913;BME280;71377;50.698;7.164;2023-07-31T11:26:14;100313.59;;;21.48;73.71
81913;BME280;71377;50.698;7.164;2023-07-31T11:28:40;100321.75;;;21.47;73.45
81913;BME280;71377;50.698;7.164;2023-07-31T11:31:10;100335.75;;;21.60;72.17
81913;BME280;71377;50.698;7.164;2023-07-31T11:33:37;100334.00;;;21.49;71.84
81913;BME280;71377;50.698;7.164;2023-07-31T11:36:04;100332.69;;;21.64;73.08
81913;BME280;71377;50.698;7.164;2023-07-31T11:38:33;100344.00;;;21.78;73.19
81913;BME280;71377;50.698;7.164;2023-07-31T11:41:01;100337.47;;;21.70;74.87
81913;BME280;71377;50.698;7.164;2023-07-31T11:43:29;100345.84;;;21.14;78.94
81913;BME280;71377;50.698;7.164;2023-07-31T11:45:57;100337.69;;;20.95;80.21
81913;BME280;71377;50.698;7.164;2023-07-31T11:48:26;100323.41;;;20.85;80.13
81913;BME280;71377;50.698;7.164;2023-07-31T11:50:59;100326.78;;;20.87;80.61
81913;BME280;71377;50.698;7.164;2023-07-31T11:56:02;100313.06;;;21.54;77.97
81913;BME280;71377;50.698;7.164;2023-07-31T11:58:31;100303.50;;;21.82;76.51
81913;BME280;71377;50.698;7.164;2023-07-31T12:00:59;100297.75;;;22.27;74.64
81913;BME280;71377;50.698;7.164;2023-07-31T12:03:27;100305.09;;;22.25;73.55
81913;BME280;71377;50.698;7.164;2023-07-31T12:05:54;100302.56;;;22.33;75.07
81913;BME280;71377;50.698;7.164;2023-07-31T12:08:22;100302.59;;;22.62;73.42
81913;BME280;71377;50.698;7.164;2023-07-31T12:10:53;100295.69;;;22.79;72.83
81913;BME280;71377;50.698;7.164;2023-07-31T12:13:22;100289.94;;;23.03;72.29
81913;BME280;71377;50.698;7.164;2023-07-31T12:15:54;100289.78;;;23.14;69.79
81913;BME280;71377;50.698;7.164;2023-07-31T12:18:22;100279.78;;;22.97;69.06
81913;BME280;71377;50.698;7.164;2023-07-31T12:20:54;100271.91;;;22.86;68.87
81913;BME280;71377;50.698;7.164;2023-07-31T12:23:22;100276.09;;;23.07;67.85
81913;BME280;71377;50.698;7.164;2023-07-31T12:26:12;100280.91;;;23.13;68.64
81913;BME280;71377;50.698;7.164;2023-07-31T12:28:43;100275.72;;;23.49;67.89
81913;BME280;71377;50.698;7.164;2023-07-31T12:31:15;100270.03;;;23.62;66.53
81913;BME280;71377;50.698;7.164;2023-07-31T12:33:43;100278.88;;;23.82;66.85
81913;BME280;71377;50.698;7.164;2023-07-31T12:36:12;100275.72;;;23.86;65.34
81913;BME280;71377;50.698;7.164;2023-07-31T12:38:40;100282.19;;;23.66;64.91
81913;BME280;71377;50.698;7.164;2023-07-31T12:41:07;100277.66;;;23.57;65.17
81913;BME280;71377;50.698;7.164;2023-07-31T12:43:38;100282.56;;;23.24;65.57
81913;BME280;71377;50.698;7.164;2023-07-31T12:46:06;100274.34;;;23.35;65.66
81913;BME280;71377;50.698;7.164;2023-07-31T12:48:37;100282.47;;;22.97;66.79
81913;BME280;71377;50.698;7.164;2023-07-31T12:51:04;100281.03;;;22.93;67.64
81913;BME280;71377;50.698;7.164;2023-07-31T12:53:31;100271.06;;;22.95;67.48
81913;BME280;71377;50.698;7.164;2023-07-31T12:56:00;100270.59;;;22.61;68.67
81913;BME280;71377;50.698;7.164;2023-07-31T12:58:27;100267.78;;;22.43;69.37
81913;BME280;71377;50.698;7.164;2023-07-31T13:00:53;100258.03;;;22.32;69.23
81913;BME280;71377;50.698;7.164;2023-07-31T13:03:20;100266.63;;;22.36;69.51
81913;BME280;71377;50.698;7.164;2023-07-31T13:05:46;100264.81;;;22.26;70.01
81913;BME280;71377;50.698;7.164;2023-07-31T13:08:14;100266.09;;;22.42;70.08